Terminal Aerodrome Forecast
Issued by NWS

Home | Current Version | Previous Version | Text Only | Print | Product List | Glossary On
Versions: 1 2 3 4 5 6 7 8 9 10 11 12 13 14 15
000
FTUS42 KEYW 311800 AAA
TAFMTH
TAF AMD
KMTH 311811Z 3118/0118 28008KT P6SM SCT030
     FM010000 31010KT P6SM FEW030
     FM011500 33012G18KT P6SM FEW035=

USA.gov is the U.S. government's official web portal to all federal, state and local government web resources and services.